Time;durP1;ratioP1;P1;durP2;ratioP2;P2;SDS_P1;SDS_P2;PMS_P1;PMS_P2;Temp;Humidity;BMP_temperature;BMP_pressure;BME280_temperature;BME280_humidity;BME280_pressure;Samples;Min_cycle;Max_cycle;Signal;HPM_P1;HPM_P2
2021/04/13 00:01:49;;;;;;;;;;;23.50;44.90;;;;;;1584757;73;679;-59
2021/04/13 00:03:55;;;;;;;;;;;23.40;45.20;;;;;;1570047;74;1051;-60
2021/04/13 00:05:57;;;;;;;;;;;23.30;45.20;;;;;;1589918;73;830;-60
2021/04/13 00:08:00;;;;;;;;;;;23.20;45.30;;;;;;1587169;73;803;-61
2021/04/13 00:10:04;;;;;;;;;;;23.10;45.60;;;;;;1591358;73;1104;-59
2021/04/13 00:12:07;;;;;;;;;;;23.10;45.70;;;;;;1582494;73;1895;-59
2021/04/13 00:14:10;;;;;;;;;;;23.20;45.60;;;;;;1594777;73;1895;-60
2021/04/13 00:16:12;;;;;;;;;;;23.30;45.60;;;;;;1584932;73;674;-59
2021/04/13 00:18:14;;;;;;;;;;;23.30;45.40;;;;;;1589744;73;1931;-60
2021/04/13 00:20:21;;;;;;;;;;;23.40;45.30;;;;;;1549559;74;1120;-60
2021/04/13 00:22:23;;;;;;;;;;;23.50;45.30;;;;;;1580717;73;637;-60
2021/04/13 00:24:25;;;;;;;;;;;23.40;45.20;;;;;;1583794;73;705;-60
2021/04/13 00:26:28;;;;;;;;;;;23.50;45.10;;;;;;1579170;73;707;-60
2021/04/13 00:28:30;;;;;;;;;;;23.40;45.00;;;;;;1596790;73;1151;-59
2021/04/13 00:30:46;;;;;;;;;;;23.50;45.00;;;;;;1589893;73;739;-62
2021/04/13 00:32:58;;;;;;;;;;;23.50;45.10;;;;;;1602457;73;779;-59
2021/04/13 00:35:15;;;;;;;;;;;23.50;45.20;;;;;;1593523;73;759;-59
2021/04/13 00:37:26;;;;;;;;;;;23.40;45.20;;;;;;1591442;73;1705;-58
2021/04/13 00:39:28;;;;;;;;;;;23.50;45.30;;;;;;1600895;73;1149;-59
2021/04/13 00:41:30;;;;;;;;;;;23.40;45.40;;;;;;1596401;73;756;-59
2021/04/13 00:43:32;;;;;;;;;;;23.40;45.30;;;;;;1580678;73;684;-56
2021/04/13 00:45:38;;;;;;;;;;;23.50;45.50;;;;;;1602065;73;736;-59
2021/04/13 00:47:40;;;;;;;;;;;23.40;45.20;;;;;;1598190;73;938;-59
2021/04/13 00:49:43;;;;;;;;;;;23.50;45.40;;;;;;1598525;73;1140;-61
2021/04/13 00:51:49;;;;;;;;;;;23.50;45.40;;;;;;1593382;73;1198;-59
2021/04/13 00:53:53;;;;;;;;;;;23.50;45.30;;;;;;1590191;73;964;-58
2021/04/13 00:55:55;;;;;;;;;;;23.40;45.30;;;;;;1586088;73;1537;-57
2021/04/13 00:57:59;;;;;;;;;;;23.40;45.50;;;;;;1595539;73;1942;-57
2021/04/13 01:00:01;;;;;;;;;;;23.40;45.40;;;;;;1597780;73;1664;-60
2021/04/13 01:02:07;;;;;;;;;;;23.40;45.40;;;;;;1599966;73;762;-60
2021/04/13 01:04:16;;;;;;;;;;;23.40;45.40;;;;;;1587765;73;697;-56
2021/04/13 01:06:22;;;;;;;;;;;23.40;45.30;;;;;;1596819;73;803;-60
2021/04/13 01:08:31;;;;;;;;;;;23.40;45.40;;;;;;1594497;73;1126;-57
2021/04/13 01:10:34;;;;;;;;;;;23.40;45.30;;;;;;1589565;73;798;-59
2021/04/13 01:12:38;;;;;;;;;;;23.40;45.50;;;;;;1597352;73;743;-58
2021/04/13 01:14:39;;;;;;;;;;;23.40;45.40;;;;;;1593549;73;830;-61
2021/04/13 01:16:43;;;;;;;;;;;23.40;45.50;;;;;;1586634;73;756;-59
2021/04/13 01:18:45;;;;;;;;;;;23.40;45.40;;;;;;1599331;73;1979;-61
2021/04/13 01:21:05;;;;;;;;;;;23.50;45.40;;;;;;1587380;73;1196;-57
2021/04/13 01:23:15;;;;;;;;;;;23.50;45.30;;;;;;1588656;73;780;-57
2021/04/13 01:25:18;;;;;;;;;;;23.40;45.30;;;;;;1586553;73;1539;-59
2021/04/13 01:27:20;;;;;;;;;;;23.40;45.40;;;;;;1579660;73;722;-61
2021/04/13 01:29:24;;;;;;;;;;;23.40;45.60;;;;;;1603706;73;1120;-60
2021/04/13 01:33:54;;;;;;;;;;;23.30;45.80;;;;;;1607620;73;988;-60
2021/04/13 01:35:56;;;;;;;;;;;23.40;45.90;;;;;;1597924;73;988;-60
2021/04/13 01:38:15;;;;;;;;;;;23.40;45.70;;;;;;1606706;73;1920;-57
2021/04/13 01:42:16;;;;;;;;;;;23.50;45.50;;;;;;1604683;73;901;-57
2021/04/13 01:44:18;;;;;;;;;;;23.60;45.50;;;;;;1584457;73;767;-58
2021/04/13 01:46:20;;;;;;;;;;;23.50;45.40;;;;;;1602873;73;742;-60
2021/04/13 01:48:21;;;;;;;;;;;23.60;45.20;;;;;;1565857;74;1126;-60
2021/04/13 01:50:25;;;;;;;;;;;23.50;45.20;;;;;;1587336;73;793;-59
2021/04/13 01:52:30;;;;;;;;;;;23.60;45.20;;;;;;1598712;73;956;-60
2021/04/13 01:54:32;;;;;;;;;;;23.60;45.00;;;;;;1593534;73;688;-60
2021/04/13 01:56:38;;;;;;;;;;;23.60;45.30;;;;;;1592707;73;801;-61
2021/04/13 01:58:41;;;;;;;;;;;23.50;45.20;;;;;;1586983;73;1926;-61
2021/04/13 02:00:46;;;;;;;;;;;23.50;45.30;;;;;;1603900;73;743;-58
2021/04/13 02:02:49;;;;;;;;;;;23.60;45.30;;;;;;1590674;73;1650;-60
2021/04/13 02:04:53;;;;;;;;;;;23.60;45.20;;;;;;1600792;73;785;-60
2021/04/13 02:07:19;;;;;;;;;;;23.60;45.20;;;;;;1593714;73;765;-58
2021/04/13 02:09:43;;;;;;;;;;;23.60;45.30;;;;;;1605678;73;1750;-61
2021/04/13 02:11:27;;;;;;;;;;;23.60;45.20;;;;;;1575750;73;1419;-57
2021/04/13 02:13:30;;;;;;;;;;;23.60;45.20;;;;;;1594081;73;691;-61
2021/04/13 02:15:37;;;;;;;;;;;23.60;45.10;;;;;;1599274;73;747;-59
2021/04/13 02:17:43;;;;;;;;;;;23.60;45.00;;;;;;1592805;73;818;-59
2021/04/13 02:19:47;;;;;;;;;;;23.60;45.00;;;;;;1595958;73;1926;-61
2021/04/13 02:21:50;;;;;;;;;;;23.60;45.10;;;;;;1593485;73;1798;-59
2021/04/13 02:23:53;;;;;;;;;;;23.60;45.10;;;;;;1601912;73;786;-59
2021/04/13 02:25:55;;;;;;;;;;;23.60;44.90;;;;;;1601113;73;793;-61
2021/04/13 02:27:57;;;;;;;;;;;23.60;45.00;;;;;;1609822;73;790;-59
2021/04/13 02:30:04;;;;;;;;;;;23.60;45.10;;;;;;1594935;73;1095;-60
2021/04/13 02:32:07;;;;;;;;;;;23.60;45.10;;;;;;1598988;73;1874;-61
2021/04/13 02:34:14;;;;;;;;;;;23.60;45.10;;;;;;1610857;73;1702;-59
2021/04/13 02:36:17;;;;;;;;;;;23.60;45.20;;;;;;1595845;73;1837;-58
2021/04/13 02:38:24;;;;;;;;;;;23.60;45.20;;;;;;1606569;73;1937;-59
2021/04/13 02:40:27;;;;;;;;;;;23.60;45.20;;;;;;1600076;73;873;-59
2021/04/13 02:42:36;;;;;;;;;;;23.50;45.30;;;;;;1607254;73;786;-59
2021/04/13 02:44:33;;;;;;;;;;;23.50;45.40;;;;;;1588482;73;1618;-60
2021/04/13 02:46:35;;;;;;;;;;;23.50;45.40;;;;;;1587107;73;736;-62
2021/04/13 02:48:43;;;;;;;;;;;23.50;45.40;;;;;;1594556;73;1105;-60
2021/04/13 02:50:46;;;;;;;;;;;23.40;45.40;;;;;;1599863;73;771;-60
2021/04/13 02:52:49;;;;;;;;;;;23.40;45.60;;;;;;1597421;73;805;-59
2021/04/13 02:54:52;;;;;;;;;;;23.40;45.80;;;;;;1594269;73;1038;-60
2021/04/13 02:56:56;;;;;;;;;;;23.40;45.70;;;;;;1584576;73;819;-59
2021/04/13 02:58:59;;;;;;;;;;;23.30;45.90;;;;;;1596069;73;1932;-61
2021/04/13 03:01:01;;;;;;;;;;;23.30;46.00;;;;;;1590865;73;768;-60
2021/04/13 03:03:05;;;;;;;;;;;23.20;45.60;;;;;;1604006;73;732;-59
2021/04/13 03:05:07;;;;;;;;;;;23.20;45.60;;;;;;1601839;73;1843;-57
2021/04/13 03:07:11;;;;;;;;;;;23.20;45.70;;;;;;1610565;73;716;-59
2021/04/13 03:09:13;;;;;;;;;;;23.10;45.80;;;;;;1600263;73;1910;-58
2021/04/13 03:11:16;;;;;;;;;;;23.10;45.70;;;;;;1597285;73;802;-59
2021/04/13 03:13:22;;;;;;;;;;;23.00;45.70;;;;;;1612430;73;1011;-60
2021/04/13 03:15:25;;;;;;;;;;;23.10;45.70;;;;;;1589587;73;856;-58
2021/04/13 03:17:29;;;;;;;;;;;23.10;45.70;;;;;;1602427;73;673;-57
2021/04/13 03:19:31;;;;;;;;;;;23.00;45.60;;;;;;1598783;73;1920;-58
2021/04/13 03:21:33;;;;;;;;;;;23.00;45.60;;;;;;1604147;73;715;-57
2021/04/13 03:23:35;;;;;;;;;;;23.00;45.50;;;;;;1601511;73;765;-59
2021/04/13 03:25:37;;;;;;;;;;;23.00;45.50;;;;;;1596374;73;768;-59
2021/04/13 03:27:39;;;;;;;;;;;23.00;45.50;;;;;;1613053;73;711;-59
2021/04/13 03:29:43;;;;;;;;;;;23.00;45.50;;;;;;1601530;73;1273;-60
2021/04/13 03:31:45;;;;;;;;;;;23.00;45.50;;;;;;1591900;73;1872;-56
2021/04/13 03:33:47;;;;;;;;;;;23.00;45.50;;;;;;1599037;73;808;-57
2021/04/13 03:35:49;;;;;;;;;;;23.00;45.30;;;;;;1594519;73;771;-59
2021/04/13 03:37:51;;;;;;;;;;;22.90;45.40;;;;;;1586438;73;773;-58
2021/04/13 03:39:53;;;;;;;;;;;23.00;45.40;;;;;;1579106;73;1962;-57
2021/04/13 03:41:55;;;;;;;;;;;23.00;45.40;;;;;;1593570;73;813;-58
2021/04/13 03:43:58;;;;;;;;;;;22.90;45.40;;;;;;1582529;73;777;-60
2021/04/13 03:46:01;;;;;;;;;;;22.90;45.30;;;;;;1588932;73;746;-59
2021/04/13 03:48:04;;;;;;;;;;;23.00;45.20;;;;;;1557011;74;1347;-61
2021/04/13 03:50:06;;;;;;;;;;;23.00;45.50;;;;;;1591152;72;1975;-60
2021/04/13 03:52:22;;;;;;;;;;;23.00;45.30;;;;;;1590685;73;762;-59
2021/04/13 03:54:25;;;;;;;;;;;23.00;45.20;;;;;;1597403;73;1937;-59
2021/04/13 03:56:27;;;;;;;;;;;23.00;45.20;;;;;;1595162;73;812;-58
2021/04/13 03:58:30;;;;;;;;;;;23.10;45.30;;;;;;1600054;73;1146;-61
2021/04/13 04:00:32;;;;;;;;;;;23.00;45.20;;;;;;1589042;72;710;-57
2021/04/13 04:02:34;;;;;;;;;;;23.00;45.20;;;;;;1597099;72;731;-59
2021/04/13 04:04:37;;;;;;;;;;;23.00;45.20;;;;;;1590904;72;792;-60
2021/04/13 04:06:41;;;;;;;;;;;23.00;45.20;;;;;;1591136;72;900;-58
2021/04/13 04:08:49;;;;;;;;;;;23.00;45.20;;;;;;1594367;72;1175;-58
2021/04/13 04:10:48;;;;;;;;;;;23.00;45.20;;;;;;1586798;72;219673;-66
2021/04/13 04:13:03;;;;;;;;;;;23.10;45.20;;;;;;1590836;74;769;-67
2021/04/13 04:15:10;;;;;;;;;;;23.10;45.20;;;;;;1583365;74;796;-66
2021/04/13 04:17:13;;;;;;;;;;;23.00;45.10;;;;;;1581031;74;795;-67
2021/04/13 04:19:21;;;;;;;;;;;23.10;45.20;;;;;;1585633;74;1953;-65
2021/04/13 04:21:27;;;;;;;;;;;23.00;45.10;;;;;;1556061;75;1815;-67
2021/04/13 04:23:30;;;;;;;;;;;23.10;45.20;;;;;;1552779;75;774;-68
2021/04/13 04:25:36;;;;;;;;;;;23.10;45.20;;;;;;1552767;75;858;-67
2021/04/13 04:27:38;;;;;;;;;;;23.10;45.00;;;;;;1556145;75;759;-67
2021/04/13 04:29:46;;;;;;;;;;;23.10;45.00;;;;;;1567025;74;1230;-69
2021/04/13 04:31:48;;;;;;;;;;;23.10;45.00;;;;;;1551112;75;808;-68
2021/04/13 04:33:50;;;;;;;;;;;23.10;45.00;;;;;;1549043;75;812;-67
2021/04/13 04:35:52;;;;;;;;;;;23.00;44.70;;;;;;1557618;75;812;-66
2021/04/13 04:38:07;;;;;;;;;;;23.10;44.90;;;;;;1554416;75;708;-66
2021/04/13 04:40:14;;;;;;;;;;;23.00;44.70;;;;;;1559597;74;1929;-66
2021/04/13 04:42:28;;;;;;;;;;;23.00;44.70;;;;;;1552667;75;811;-64
2021/04/13 04:44:28;;;;;;;;;;;23.10;44.90;;;;;;1546333;75;1659;-66
2021/04/13 04:46:32;;;;;;;;;;;23.10;44.80;;;;;;1543321;75;1865;-66
2021/04/13 04:48:34;;;;;;;;;;;23.10;44.80;;;;;;1546038;75;1044;-66
2021/04/13 04:50:36;;;;;;;;;;;23.00;44.70;;;;;;1560713;74;1127;-67
2021/04/13 04:52:38;;;;;;;;;;;23.10;44.90;;;;;;1552056;75;679;-67
2021/04/13 04:54:40;;;;;;;;;;;23.00;44.80;;;;;;1547473;75;763;-66
2021/04/13 04:56:42;;;;;;;;;;;23.10;44.90;;;;;;1560370;75;656;-68
2021/04/13 04:58:44;;;;;;;;;;;23.10;44.80;;;;;;1550606;75;737;-67
2021/04/13 05:00:46;;;;;;;;;;;23.00;44.70;;;;;;1551680;74;1924;-69
2021/04/13 05:02:48;;;;;;;;;;;23.10;44.90;;;;;;1547603;75;752;-66
2021/04/13 05:04:51;;;;;;;;;;;23.10;44.90;;;;;;1545465;75;770;-67
2021/04/13 05:06:53;;;;;;;;;;;23.10;44.80;;;;;;1537570;75;760;-68
2021/04/13 05:08:55;;;;;;;;;;;23.10;44.70;;;;;;1558767;75;919;-66
2021/04/13 05:10:57;;;;;;;;;;;23.10;44.80;;;;;;1558312;74;1298;-67
2021/04/13 05:12:59;;;;;;;;;;;23.10;44.70;;;;;;1561863;75;841;-67
2021/04/13 05:15:01;;;;;;;;;;;23.10;44.70;;;;;;1544796;75;835;-67
2021/04/13 05:17:03;;;;;;;;;;;23.10;44.80;;;;;;1560281;75;696;-68
2021/04/13 05:19:04;;;;;;;;;;;23.10;44.70;;;;;;1560483;75;1933;-67
2021/04/13 05:21:06;;;;;;;;;;;23.20;44.60;;;;;;1558389;75;1139;-68
2021/04/13 05:23:08;;;;;;;;;;;23.20;44.50;;;;;;1555017;75;781;-67
2021/04/13 05:25:11;;;;;;;;;;;23.20;44.60;;;;;;1550858;75;798;-67
2021/04/13 05:27:13;;;;;;;;;;;23.10;44.60;;;;;;1551935;75;779;-67
2021/04/13 05:29:15;;;;;;;;;;;23.20;44.60;;;;;;1558262;75;761;-67
2021/04/13 05:31:17;;;;;;;;;;;23.10;44.50;;;;;;1539226;75;1097;-67
2021/04/13 05:33:19;;;;;;;;;;;23.20;44.50;;;;;;1545404;75;805;-67
2021/04/13 05:35:21;;;;;;;;;;;23.10;44.50;;;;;;1557658;75;761;-66
2021/04/13 05:37:25;;;;;;;;;;;23.20;44.50;;;;;;1553167;75;795;-66
2021/04/13 05:39:27;;;;;;;;;;;23.20;44.70;;;;;;1551968;75;1923;-68
2021/04/13 05:41:28;;;;;;;;;;;23.10;44.60;;;;;;1549077;75;715;-66
2021/04/13 05:43:30;;;;;;;;;;;23.20;44.60;;;;;;1549270;75;714;-71
2021/04/13 05:45:33;;;;;;;;;;;23.10;44.60;;;;;;1541771;75;796;-72
2021/04/13 05:47:36;;;;;;;;;;;23.20;44.70;;;;;;1538037;75;704;-68
2021/04/13 05:49:38;;;;;;;;;;;23.20;44.40;;;;;;1542027;74;1146;-71
2021/04/13 05:51:40;;;;;;;;;;;23.30;44.40;;;;;;1562454;75;795;-70
2021/04/13 05:53:41;;;;;;;;;;;23.30;44.40;;;;;;1551367;75;811;-71
2021/04/13 05:55:44;;;;;;;;;;;23.20;44.40;;;;;;1542006;75;656;-73
2021/04/13 05:57:46;;;;;;;;;;;23.20;44.40;;;;;;1550359;75;722;-71
2021/04/13 05:59:52;;;;;;;;;;;23.10;44.50;;;;;;1547577;75;1950;-66
2021/04/13 06:01:53;;;;;;;;;;;23.20;44.60;;;;;;1552927;75;692;-66
2021/04/13 06:03:55;;;;;;;;;;;23.20;44.30;;;;;;1564919;75;943;-69
2021/04/13 06:05:57;;;;;;;;;;;23.20;44.20;;;;;;1559330;75;823;-67
2021/04/13 06:07:59;;;;;;;;;;;23.30;44.40;;;;;;1550036;75;804;-66
2021/04/13 06:10:01;;;;;;;;;;;23.30;44.40;;;;;;1547335;75;1185;-68
2021/04/13 06:12:03;;;;;;;;;;;23.30;44.40;;;;;;1562215;75;794;-66
2021/04/13 06:14:05;;;;;;;;;;;23.30;44.40;;;;;;1555927;75;700;-66
2021/04/13 06:16:10;;;;;;;;;;;23.30;44.30;;;;;;1550866;75;787;-67
2021/04/13 06:18:11;;;;;;;;;;;23.30;44.40;;;;;;1551496;75;1687;-66
2021/04/13 06:20:13;;;;;;;;;;;23.30;44.40;;;;;;1549622;75;1927;-69
2021/04/13 06:22:15;;;;;;;;;;;23.30;44.30;;;;;;1559683;75;763;-69
2021/04/13 06:24:17;;;;;;;;;;;23.30;44.20;;;;;;1552891;75;795;-68
2021/04/13 06:26:19;;;;;;;;;;;23.40;43.90;;;;;;1556278;75;768;-67
2021/04/13 06:28:20;;;;;;;;;;;23.50;43.50;;;;;;1550515;75;742;-68
2021/04/13 06:30:23;;;;;;;;;;;23.60;43.10;;;;;;1550214;75;1138;-68
2021/04/13 06:32:25;;;;;;;;;;;23.70;42.90;;;;;;1549271;75;776;-68
2021/04/13 06:34:27;;;;;;;;;;;23.70;42.60;;;;;;1544825;75;687;-68
2021/04/13 06:36:29;;;;;;;;;;;23.80;42.10;;;;;;1546285;75;710;-68
2021/04/13 06:38:31;;;;;;;;;;;23.80;42.30;;;;;;1558618;75;744;-69
2021/04/13 06:40:47;;;;;;;;;;;23.90;42.20;;;;;;1535080;75;1941;-69
2021/04/13 06:42:53;;;;;;;;;;;24.00;42.10;;;;;;1553913;75;2095;-68
2021/04/13 06:45:06;;;;;;;;;;;24.00;42.00;;;;;;1531436;75;1169;-69
2021/04/13 06:47:15;;;;;;;;;;;24.00;41.80;;;;;;1552810;75;1821;-68
2021/04/13 06:49:35;;;;;;;;;;;24.00;41.60;;;;;;1553941;75;742;-69
2021/04/13 06:51:51;;;;;;;;;;;24.00;41.60;;;;;;1546523;75;756;-68
2021/04/13 06:54:04;;;;;;;;;;;24.00;41.70;;;;;;1548678;75;1793;-66
2021/04/13 06:56:25;;;;;;;;;;;23.90;42.20;;;;;;1543032;75;1449;-70
2021/04/13 06:58:35;;;;;;;;;;;23.80;42.70;;;;;;1554194;75;751;-71
2021/04/13 07:00:55;;;;;;;;;;;23.80;43.20;;;;;;1552647;74;1947;-71
2021/04/13 07:03:01;;;;;;;;;;;23.80;43.10;;;;;;1551323;75;724;-70
2021/04/13 07:05:19;;;;;;;;;;;23.90;43.10;;;;;;1558465;75;1897;-69
2021/04/13 07:07:25;;;;;;;;;;;23.90;43.00;;;;;;1537766;75;778;-70
2021/04/13 07:09:43;;;;;;;;;;;24.00;42.90;;;;;;1549319;74;1175;-69
2021/04/13 07:12:04;;;;;;;;;;;24.00;42.80;;;;;;1552152;75;1570;-69
2021/04/13 07:14:10;;;;;;;;;;;24.00;42.70;;;;;;1550229;75;782;-69
2021/04/13 07:16:15;;;;;;;;;;;24.00;42.60;;;;;;1559448;75;1666;-70
2021/04/13 07:18:25;;;;;;;;;;;24.00;42.60;;;;;;1565455;76;1110;-67
2021/04/13 07:20:31;;;;;;;;;;;24.10;42.60;;;;;;1545498;75;1945;-70
2021/04/13 07:22:35;;;;;;;;;;;24.00;42.50;;;;;;1553295;76;1819;-65
2021/04/13 07:24:38;;;;;;;;;;;24.00;42.40;;;;;;1556299;74;849;-67
2021/04/13 07:26:43;;;;;;;;;;;24.00;41.00;;;;;;1558195;75;744;-65
2021/04/13 07:28:49;;;;;;;;;;;24.00;40.00;;;;;;1554999;75;1936;-68
2021/04/13 07:30:53;;;;;;;;;;;23.90;38.90;;;;;;1545861;75;1987;-68
2021/04/13 07:32:58;;;;;;;;;;;23.80;38.30;;;;;;1545851;76;1766;-65
2021/04/13 07:35:00;;;;;;;;;;;23.80;38.10;;;;;;1547419;75;776;-65
2021/04/13 07:37:03;;;;;;;;;;;23.80;37.50;;;;;;1547223;75;702;-66
2021/04/13 07:39:05;;;;;;;;;;;23.70;37.40;;;;;;1547894;75;780;-65
2021/04/13 07:41:11;;;;;;;;;;;23.60;37.00;;;;;;1550037;74;1948;-66
2021/04/13 07:43:19;;;;;;;;;;;23.60;36.80;;;;;;1552191;75;807;-66
2021/04/13 07:45:20;;;;;;;;;;;23.60;36.70;;;;;;1544018;76;1594;-66
2021/04/13 07:47:36;;;;;;;;;;;23.60;36.70;;;;;;1548283;75;779;-66
2021/04/13 07:49:39;;;;;;;;;;;23.50;36.60;;;;;;1540742;76;1139;-66
2021/04/13 07:51:49;;;;;;;;;;;23.50;36.40;;;;;;1549659;75;762;-65
2021/04/13 07:53:52;;;;;;;;;;;23.40;37.20;;;;;;1551578;75;814;-67
2021/04/13 07:55:59;;;;;;;;;;;23.50;37.60;;;;;;1554586;75;807;-65
2021/04/13 07:58:14;;;;;;;;;;;23.40;36.00;;;;;;1560473;76;1702;-68
2021/04/13 08:00:19;;;;;;;;;;;23.20;35.00;;;;;;1544900;74;1953;-64
2021/04/13 08:02:21;;;;;;;;;;;23.40;37.10;;;;;;1554863;76;877;-68
2021/04/13 08:04:26;;;;;;;;;;;23.40;37.40;;;;;;1557320;76;738;-66
2021/04/13 08:06:30;;;;;;;;;;;23.40;36.40;;;;;;1560744;75;763;-66
2021/04/13 08:08:35;;;;;;;;;;;23.40;37.50;;;;;;1558339;76;778;-66
2021/04/13 08:10:38;;;;;;;;;;;23.40;36.80;;;;;;1551729;76;1193;-69
2021/04/13 08:12:50;;;;;;;;;;;23.40;36.50;;;;;;1556627;76;793;-67
2021/04/13 08:14:57;;;;;;;;;;;23.40;36.70;;;;;;1546021;75;768;-67
2021/04/13 08:17:06;;;;;;;;;;;23.30;35.50;;;;;;1552081;75;751;-63
2021/04/13 08:19:26;;;;;;;;;;;23.20;36.40;;;;;;1538629;75;1868;-67
2021/04/13 08:21:29;;;;;;;;;;;23.20;35.70;;;;;;1543442;76;1904;-66
2021/04/13 08:23:36;;;;;;;;;;;23.20;36.30;;;;;;1552825;75;1766;-65
2021/04/13 08:25:37;;;;;;;;;;;23.20;35.00;;;;;;1545980;75;1676;-70
2021/04/13 08:27:41;;;;;;;;;;;23.20;33.90;;;;;;1544709;76;848;-66
2021/04/13 08:29:50;;;;;;;;;;;23.10;33.80;;;;;;1552110;74;1155;-68
2021/04/13 08:34:27;;;;;;;;;;;23.10;34.20;;;;;;1545596;75;745;-67
2021/04/13 08:36:31;;;;;;;;;;;23.10;34.80;;;;;;1555561;76;748;-66
2021/04/13 08:38:34;;;;;;;;;;;23.10;34.30;;;;;;1546143;75;763;-64
2021/04/13 08:40:37;;;;;;;;;;;23.10;34.40;;;;;;1552840;75;1940;-68
2021/04/13 08:42:41;;;;;;;;;;;23.10;34.40;;;;;;1541409;76;767;-63
2021/04/13 08:44:47;;;;;;;;;;;23.10;34.30;;;;;;1543190;76;1858;-67
2021/04/13 08:46:51;;;;;;;;;;;23.10;33.70;;;;;;1551373;75;1818;-70
2021/04/13 08:48:57;;;;;;;;;;;23.10;33.60;;;;;;1550924;76;1721;-68
2021/04/13 08:51:10;;;;;;;;;;;23.10;34.00;;;;;;1536252;76;2131;-69
2021/04/13 08:53:23;;;;;;;;;;;23.10;34.50;;;;;;1548139;76;876;-70
2021/04/13 08:55:40;;;;;;;;;;;23.00;34.90;;;;;;1539504;76;1064;-70
2021/04/13 08:57:43;;;;;;;;;;;23.00;35.40;;;;;;1556121;75;709;-70
2021/04/13 08:59:45;;;;;;;;;;;23.00;35.60;;;;;;1544487;74;1141;-70
2021/04/13 09:01:49;;;;;;;;;;;23.10;36.00;;;;;;1548633;75;1939;-69
2021/04/13 09:03:51;;;;;;;;;;;23.10;36.30;;;;;;1530677;76;673;-71
2021/04/13 09:06:12;;;;;;;;;;;23.10;36.50;;;;;;1549201;75;838;-71
2021/04/13 09:08:16;;;;;;;;;;;23.20;36.50;;;;;;1562512;75;748;-69
2021/04/13 09:10:19;;;;;;;;;;;23.30;36.80;;;;;;1543168;74;1908;-70
2021/04/13 09:12:26;;;;;;;;;;;23.30;37.00;;;;;;1547212;76;1575;-71
2021/04/13 09:14:41;;;;;;;;;;;23.30;37.10;;;;;;1552526;76;2118;-69
2021/04/13 09:16:39;;;;;;;;;;;23.30;37.30;;;;;;1542753;76;1645;-70
2021/04/13 09:18:48;;;;;;;;;;;23.30;37.50;;;;;;1554690;76;736;-68
2021/04/13 09:21:09;;;;;;;;;;;23.30;37.60;;;;;;1557627;74;1953;-69
2021/04/13 09:23:18;;;;;;;;;;;23.30;37.80;;;;;;1547436;76;788;-70
2021/04/13 09:25:21;;;;;;;;;;;23.20;37.80;;;;;;1542167;76;663;-69
2021/04/13 09:27:28;;;;;;;;;;;23.30;38.10;;;;;;1554656;76;996;-68
2021/04/13 09:29:37;;;;;;;;;;;23.20;38.10;;;;;;1551978;74;1921;-69
2021/04/13 09:31:44;;;;;;;;;;;23.30;38.20;;;;;;1555025;75;778;-70
2021/04/13 09:33:45;;;;;;;;;;;23.20;38.20;;;;;;1549803;76;798;-69
2021/04/13 09:36:05;;;;;;;;;;;23.30;38.50;;;;;;1567926;76;787;-69
2021/04/13 09:38:27;;;;;;;;;;;23.20;38.40;;;;;;1551578;76;711;-68
2021/04/13 09:40:39;;;;;;;;;;;23.30;38.60;;;;;;1545970;76;1946;-69
2021/04/13 09:42:45;;;;;;;;;;;23.20;38.40;;;;;;1541435;76;790;-71
2021/04/13 09:44:49;;;;;;;;;;;23.40;38.60;;;;;;1553316;76;1570;-72
2021/04/13 09:46:52;;;;;;;;;;;23.40;38.60;;;;;;1547891;75;755;-71
2021/04/13 09:49:07;;;;;;;;;;;23.40;38.60;;;;;;1560717;76;978;-67
2021/04/13 09:51:19;;;;;;;;;;;23.40;38.60;;;;;;1540621;75;1396;-71
2021/04/13 09:53:38;;;;;;;;;;;23.40;38.60;;;;;;1541629;75;815;-70
2021/04/13 09:55:41;;;;;;;;;;;23.40;38.70;;;;;;1548497;75;719;-70
2021/04/13 09:57:48;;;;;;;;;;;23.40;38.70;;;;;;1550256;75;805;-69
2021/04/13 10:00:03;;;;;;;;;;;23.40;38.80;;;;;;1556269;74;1178;-70
2021/04/13 10:02:07;;;;;;;;;;;23.40;38.90;;;;;;1546053;76;1939;-68
2021/04/13 10:04:27;;;;;;;;;;;23.40;38.90;;;;;;1544146;75;903;-67
2021/04/13 10:06:30;;;;;;;;;;;23.50;39.00;;;;;;1544052;76;788;-65
2021/04/13 10:08:33;;;;;;;;;;;23.50;38.50;;;;;;1547191;76;832;-68
2021/04/13 10:10:42;;;;;;;;;;;23.50;38.10;;;;;;1537158;73;217174;-62
2021/04/13 10:12:45;;;;;;;;;;;23.50;38.10;;;;;;1529799;75;692;-61
2021/04/13 10:15:05;;;;;;;;;;;23.50;38.10;;;;;;1531077;75;767;-58
2021/04/13 10:17:08;;;;;;;;;;;23.50;38.20;;;;;;1539862;76;724;-59
2021/04/13 10:19:21;;;;;;;;;;;23.50;38.10;;;;;;1531938;75;1180;-61
2021/04/13 10:21:39;;;;;;;;;;;23.50;38.20;;;;;;1520102;75;1964;-58
2021/04/13 10:23:52;;;;;;;;;;;23.40;38.20;;;;;;1539308;76;798;-61
2021/04/13 10:25:55;;;;;;;;;;;23.50;38.40;;;;;;1513362;76;764;-58
2021/04/13 10:28:02;;;;;;;;;;;23.50;38.40;;;;;;1515888;76;1986;-61
2021/04/13 10:30:17;;;;;;;;;;;23.50;38.40;;;;;;1515136;76;1184;-59
2021/04/13 10:32:38;;;;;;;;;;;23.50;38.50;;;;;;1515358;76;788;-59
2021/04/13 10:34:47;;;;;;;;;;;23.50;38.50;;;;;;1516525;76;735;-59
2021/04/13 10:37:09;;;;;;;;;;;23.50;38.50;;;;;;1513150;75;1679;-59
2021/04/13 10:39:28;;;;;;;;;;;23.50;38.50;;;;;;1515167;76;1173;-59
2021/04/13 10:41:31;;;;;;;;;;;23.50;38.50;;;;;;1521105;76;1945;-61
2021/04/13 10:43:51;;;;;;;;;;;23.50;38.50;;;;;;1523463;75;1951;-61
2021/04/13 10:45:58;;;;;;;;;;;23.50;38.60;;;;;;1516424;76;922;-59
2021/04/13 10:48:18;;;;;;;;;;;23.50;38.60;;;;;;1525130;76;792;-61
2021/04/13 10:50:25;;;;;;;;;;;23.40;38.60;;;;;;1518197;76;1141;-59
2021/04/13 10:52:41;;;;;;;;;;;23.40;38.60;;;;;;1510061;75;1693;-58
2021/04/13 10:54:45;;;;;;;;;;;23.40;38.70;;;;;;1524654;76;803;-61
2021/04/13 10:57:05;;;;;;;;;;;23.40;38.80;;;;;;1532046;76;1899;-60
2021/04/13 10:59:25;;;;;;;;;;;23.40;38.70;;;;;;1519816;75;1119;-60
2021/04/13 11:01:45;;;;;;;;;;;23.50;38.70;;;;;;1517599;75;1945;-59
2021/04/13 11:03:48;;;;;;;;;;;23.60;38.60;;;;;;1524377;76;679;-60
2021/04/13 11:05:52;;;;;;;;;;;23.50;38.60;;;;;;1515262;76;1841;-58
2021/04/13 11:07:55;;;;;;;;;;;23.50;38.70;;;;;;1524437;76;831;-60
2021/04/13 11:10:17;;;;;;;;;;;23.50;38.80;;;;;;1524484;76;1162;-60
2021/04/13 11:12:26;;;;;;;;;;;23.50;38.90;;;;;;1522978;75;793;-60
2021/04/13 11:14:30;;;;;;;;;;;23.40;38.80;;;;;;1518266;76;729;-60
2021/04/13 11:16:35;;;;;;;;;;;23.50;39.10;;;;;;1516420;76;794;-60
2021/04/13 11:18:57;;;;;;;;;;;23.50;39.00;;;;;;1518929;76;1094;-59
2021/04/13 11:21:13;;;;;;;;;;;23.60;39.00;;;;;;1521327;75;1929;-60
2021/04/13 11:23:23;;;;;;;;;;;23.60;39.00;;;;;;1520725;75;767;-59
2021/04/13 11:25:43;;;;;;;;;;;23.60;39.00;;;;;;1514036;76;734;-60
2021/04/13 11:27:58;;;;;;;;;;;23.50;39.00;;;;;;1526857;76;722;-60
2021/04/13 11:30:02;;;;;;;;;;;23.50;39.00;;;;;;1518680;76;1135;-59
2021/04/13 11:32:08;;;;;;;;;;;23.60;39.30;;;;;;1529369;75;834;-60
2021/04/13 11:34:17;;;;;;;;;;;23.50;39.40;;;;;;1528453;76;771;-60
2021/04/13 11:36:37;;;;;;;;;;;23.50;39.50;;;;;;1522604;76;1797;-59
2021/04/13 11:38:44;;;;;;;;;;;23.50;39.60;;;;;;1524056;76;1129;-61
2021/04/13 11:40:50;;;;;;;;;;;23.50;39.70;;;;;;1518841;76;778;-61
2021/04/13 11:42:51;;;;;;;;;;;23.50;39.50;;;;;;1523192;75;1914;-59
2021/04/13 11:44:58;;;;;;;;;;;23.50;39.40;;;;;;1519427;75;733;-59
2021/04/13 11:47:04;;;;;;;;;;;23.50;39.70;;;;;;1516687;75;773;-59
2021/04/13 11:49:08;;;;;;;;;;;23.50;39.80;;;;;;1499887;75;1391;-61
2021/04/13 11:51:23;;;;;;;;;;;23.60;39.50;;;;;;1517795;75;1863;-62
2021/04/13 11:53:32;;;;;;;;;;;23.70;39.50;;;;;;1515532;76;746;-60
2021/04/13 11:55:38;;;;;;;;;;;23.60;39.40;;;;;;1514413;76;825;-59
2021/04/13 11:57:57;;;;;;;;;;;23.70;39.40;;;;;;1525695;76;805;-60
2021/04/13 12:00:30;;;;;;;;;;;23.70;39.40;;;;;;1462219;80;1178;-59
2021/04/13 12:02:20;;;;;;;;;;;23.80;39.20;;;;;;1502380;75;1928;-59
2021/04/13 12:04:26;;;;;;;;;;;23.80;39.20;;;;;;1513728;76;1925;-59
2021/04/13 12:06:47;;;;;;;;;;;23.80;39.20;;;;;;1523440;76;1105;-59
2021/04/13 12:08:50;;;;;;;;;;;23.90;39.10;;;;;;1526610;76;1183;-59
2021/04/13 12:10:54;;;;;;;;;;;23.90;39.00;;;;;;1530936;76;688;-60
2021/04/13 12:12:55;;;;;;;;;;;23.90;38.90;;;;;;1524911;75;723;-60
2021/04/13 12:15:05;;;;;;;;;;;23.90;38.90;;;;;;1530124;76;796;-60
2021/04/13 12:17:08;;;;;;;;;;;23.90;38.80;;;;;;1514055;76;776;-60
2021/04/13 12:19:14;;;;;;;;;;;23.80;38.70;;;;;;1520406;76;1129;-60
2021/04/13 12:21:27;;;;;;;;;;;23.80;38.60;;;;;;1517383;77;1946;-59
2021/04/13 12:23:30;;;;;;;;;;;23.90;38.70;;;;;;1512462;76;760;-59
2021/04/13 12:25:46;;;;;;;;;;;23.90;38.60;;;;;;1526755;76;753;-59
2021/04/13 12:27:48;;;;;;;;;;;23.90;38.60;;;;;;1525067;76;708;-59
2021/04/13 12:29:50;;;;;;;;;;;23.80;38.40;;;;;;1504653;77;1117;-59
2021/04/13 12:32:10;;;;;;;;;;;23.80;38.40;;;;;;1528209;75;781;-58
2021/04/13 12:34:12;;;;;;;;;;;23.80;38.40;;;;;;1521432;76;694;-59
2021/04/13 12:36:16;;;;;;;;;;;23.80;38.40;;;;;;1520016;77;827;-60
2021/04/13 12:38:36;;;;;;;;;;;23.80;38.30;;;;;;1512365;76;1854;-59
2021/04/13 12:40:38;;;;;;;;;;;23.80;38.30;;;;;;1521354;76;789;-59